sensor_id;sensor_type;location;lat;lon;timestamp;P1;durP1;ratioP1;P2;durP2;ratioP2
55663;SDS011;41540;57.880;12.164;2023-07-13T00:02:19;15.73;;;4.40;;
55663;SDS011;41540;57.880;12.164;2023-07-13T00:12:24;10.90;;;4.47;;
55663;SDS011;41540;57.880;12.164;2023-07-13T00:22:24;10.68;;;3.15;;
55663;SDS011;41540;57.880;12.164;2023-07-13T00:32:28;11.57;;;3.20;;
55663;SDS011;41540;57.880;12.164;2023-07-13T00:42:29;8.95;;;3.85;;
55663;SDS011;41540;57.880;12.164;2023-07-13T00:52:29;16.67;;;4.15;;
55663;SDS011;41540;57.880;12.164;2023-07-13T01:02:30;14.07;;;4.30;;
55663;SDS011;41540;57.880;12.164;2023-07-13T01:12:31;10.95;;;4.20;;
55663;SDS011;41540;57.880;12.164;2023-07-13T01:22:31;6.65;;;3.00;;
55663;SDS011;41540;57.880;12.164;2023-07-13T01:32:32;9.32;;;3.30;;
55663;SDS011;41540;57.880;12.164;2023-07-13T01:42:34;5.72;;;2.60;;
55663;SDS011;41540;57.880;12.164;2023-07-13T01:52:34;8.95;;;3.60;;
55663;SDS011;41540;57.880;12.164;2023-07-13T02:02:34;10.93;;;3.67;;
55663;SDS011;41540;57.880;12.164;2023-07-13T02:12:35;8.68;;;3.45;;
55663;SDS011;41540;57.880;12.164;2023-07-13T02:22:35;8.35;;;3.40;;
55663;SDS011;41540;57.880;12.164;2023-07-13T02:32:35;7.20;;;3.67;;
55663;SDS011;41540;57.880;12.164;2023-07-13T02:42:35;18.15;;;4.55;;
55663;SDS011;41540;57.880;12.164;2023-07-13T02:52:36;7.90;;;3.67;;
55663;SDS011;41540;57.880;12.164;2023-07-13T03:02:36;10.40;;;3.90;;
55663;SDS011;41540;57.880;12.164;2023-07-13T03:12:36;10.13;;;3.95;;
55663;SDS011;41540;57.880;12.164;2023-07-13T03:22:36;9.40;;;2.80;;
55663;SDS011;41540;57.880;12.164;2023-07-13T03:32:37;10.43;;;3.03;;
55663;SDS011;41540;57.880;12.164;2023-07-13T03:42:37;6.72;;;3.40;;
55663;SDS011;41540;57.880;12.164;2023-07-13T03:52:37;7.45;;;3.17;;
55663;SDS011;41540;57.880;12.164;2023-07-13T04:02:37;9.77;;;3.38;;
55663;SDS011;41540;57.880;12.164;2023-07-13T04:12:38;4.72;;;2.80;;
55663;SDS011;41540;57.880;12.164;2023-07-13T04:22:38;6.30;;;2.88;;
55663;SDS011;41540;57.880;12.164;2023-07-13T04:32:38;6.50;;;2.78;;
55663;SDS011;41540;57.880;12.164;2023-07-13T04:52:39;10.70;;;3.05;;
55663;SDS011;41540;57.880;12.164;2023-07-13T05:02:39;11.68;;;3.83;;
55663;SDS011;41540;57.880;12.164;2023-07-13T05:12:39;5.32;;;3.10;;
55663;SDS011;41540;57.880;12.164;2023-07-13T05:22:40;6.18;;;2.72;;
55663;SDS011;41540;57.880;12.164;2023-07-13T05:32:40;6.78;;;3.17;;
55663;SDS011;41540;57.880;12.164;2023-07-13T05:42:41;3.20;;;1.98;;
55663;SDS011;41540;57.880;12.164;2023-07-13T05:52:41;7.60;;;2.50;;
55663;SDS011;41540;57.880;12.164;2023-07-13T06:02:41;12.90;;;2.65;;
55663;SDS011;41540;57.880;12.164;2023-07-13T06:12:42;10.23;;;2.70;;
55663;SDS011;41540;57.880;12.164;2023-07-13T06:22:43;15.53;;;3.20;;
55663;SDS011;41540;57.880;12.164;2023-07-13T06:32:43;6.43;;;3.07;;
55663;SDS011;41540;57.880;12.164;2023-07-13T06:42:43;6.10;;;2.08;;
55663;SDS011;41540;57.880;12.164;2023-07-13T06:52:43;5.43;;;2.70;;
55663;SDS011;41540;57.880;12.164;2023-07-13T07:02:44;10.85;;;2.88;;
55663;SDS011;41540;57.880;12.164;2023-07-13T07:12:44;6.68;;;2.58;;
55663;SDS011;41540;57.880;12.164;2023-07-13T07:22:44;7.90;;;2.45;;
55663;SDS011;41540;57.880;12.164;2023-07-13T07:32:44;7.03;;;2.65;;
55663;SDS011;41540;57.880;12.164;2023-07-13T07:42:45;4.00;;;2.38;;
55663;SDS011;41540;57.880;12.164;2023-07-13T07:52:45;4.53;;;2.47;;
55663;SDS011;41540;57.880;12.164;2023-07-13T08:02:45;5.03;;;2.00;;
55663;SDS011;41540;57.880;12.164;2023-07-13T08:12:46;4.78;;;1.40;;
55663;SDS011;41540;57.880;12.164;2023-07-13T08:22:46;12.55;;;1.65;;
55663;SDS011;41540;57.880;12.164;2023-07-13T08:32:46;6.10;;;1.92;;
55663;SDS011;41540;57.880;12.164;2023-07-13T08:42:50;5.38;;;2.05;;
55663;SDS011;41540;57.880;12.164;2023-07-13T08:52:53;6.13;;;1.50;;
55663;SDS011;41540;57.880;12.164;2023-07-13T09:02:58;1.90;;;1.25;;
55663;SDS011;41540;57.880;12.164;2023-07-13T09:23:19;3.03;;;1.83;;
55663;SDS011;41540;57.880;12.164;2023-07-13T09:33:22;4.85;;;2.20;;
55663;SDS011;41540;57.880;12.164;2023-07-13T09:43:22;3.00;;;1.98;;
55663;SDS011;41540;57.880;12.164;2023-07-13T09:53:23;10.02;;;2.83;;
55663;SDS011;41540;57.880;12.164;2023-07-13T10:03:24;3.20;;;1.98;;
55663;SDS011;41540;57.880;12.164;2023-07-13T10:13:30;5.90;;;2.13;;
55663;SDS011;41540;57.880;12.164;2023-07-13T10:23:31;8.65;;;1.85;;
55663;SDS011;41540;57.880;12.164;2023-07-13T10:33:32;2.80;;;1.30;;
55663;SDS011;41540;57.880;12.164;2023-07-13T10:43:43;4.77;;;1.63;;
55663;SDS011;41540;57.880;12.164;2023-07-13T10:53:43;4.00;;;1.88;;
55663;SDS011;41540;57.880;12.164;2023-07-13T11:03:49;9.57;;;1.83;;
55663;SDS011;41540;57.880;12.164;2023-07-13T11:23:55;2.03;;;1.70;;
55663;SDS011;41540;57.880;12.164;2023-07-13T11:34:01;4.93;;;2.22;;
55663;SDS011;41540;57.880;12.164;2023-07-13T11:44:11;2.40;;;1.73;;
55663;SDS011;41540;57.880;12.164;2023-07-13T11:54:20;5.63;;;2.10;;
55663;SDS011;41540;57.880;12.164;2023-07-13T12:04:24;3.53;;;1.80;;
55663;SDS011;41540;57.880;12.164;2023-07-13T12:14:25;3.75;;;2.05;;
55663;SDS011;41540;57.880;12.164;2023-07-13T12:24:26;3.33;;;1.73;;
55663;SDS011;41540;57.880;12.164;2023-07-13T12:34:27;12.33;;;1.83;;
55663;SDS011;41540;57.880;12.164;2023-07-13T12:44:28;4.60;;;1.45;;
55663;SDS011;41540;57.880;12.164;2023-07-13T12:54:29;3.07;;;1.53;;
55663;SDS011;41540;57.880;12.164;2023-07-13T13:04:29;4.60;;;1.97;;
55663;SDS011;41540;57.880;12.164;2023-07-13T13:14:30;8.13;;;2.05;;
55663;SDS011;41540;57.880;12.164;2023-07-13T13:24:30;1.45;;;1.13;;
55663;SDS011;41540;57.880;12.164;2023-07-13T13:34:30;6.07;;;1.67;;
55663;SDS011;41540;57.880;12.164;2023-07-13T13:44:31;4.63;;;1.73;;
55663;SDS011;41540;57.880;12.164;2023-07-13T13:54:31;2.20;;;1.10;;
55663;SDS011;41540;57.880;12.164;2023-07-13T14:04:32;2.05;;;1.10;;
55663;SDS011;41540;57.880;12.164;2023-07-13T14:14:32;2.47;;;1.27;;
55663;SDS011;41540;57.880;12.164;2023-07-13T14:24:32;3.03;;;1.17;;
55663;SDS011;41540;57.880;12.164;2023-07-13T14:34:33;1.40;;;1.30;;
55663;SDS011;41540;57.880;12.164;2023-07-13T14:44:33;4.90;;;1.75;;
55663;SDS011;41540;57.880;12.164;2023-07-13T14:54:33;6.47;;;1.98;;
55663;SDS011;41540;57.880;12.164;2023-07-13T15:04:33;2.05;;;1.00;;
55663;SDS011;41540;57.880;12.164;2023-07-13T15:14:34;5.97;;;1.60;;
55663;SDS011;41540;57.880;12.164;2023-07-13T15:24:34;4.53;;;1.67;;
55663;SDS011;41540;57.880;12.164;2023-07-13T15:34:34;4.43;;;1.88;;
55663;SDS011;41540;57.880;12.164;2023-07-13T15:44:34;5.47;;;2.38;;
55663;SDS011;41540;57.880;12.164;2023-07-13T15:54:35;3.30;;;1.57;;
55663;SDS011;41540;57.880;12.164;2023-07-13T16:04:36;8.73;;;3.28;;
55663;SDS011;41540;57.880;12.164;2023-07-13T16:14:36;5.70;;;1.95;;
55663;SDS011;41540;57.880;12.164;2023-07-13T16:24:36;8.82;;;2.42;;
55663;SDS011;41540;57.880;12.164;2023-07-13T16:34:37;10.80;;;2.15;;
55663;SDS011;41540;57.880;12.164;2023-07-13T16:44:38;3.03;;;1.80;;
55663;SDS011;41540;57.880;12.164;2023-07-13T16:54:39;4.38;;;2.50;;
55663;SDS011;41540;57.880;12.164;2023-07-13T17:04:39;4.68;;;2.58;;
55663;SDS011;41540;57.880;12.164;2023-07-13T17:14:41;2.20;;;1.23;;
55663;SDS011;41540;57.880;12.164;2023-07-13T17:24:41;6.47;;;2.25;;
55663;SDS011;41540;57.880;12.164;2023-07-13T17:34:44;7.00;;;2.05;;
55663;SDS011;41540;57.880;12.164;2023-07-13T17:44:47;4.82;;;2.42;;
55663;SDS011;41540;57.880;12.164;2023-07-13T17:54:48;9.25;;;3.25;;
55663;SDS011;41540;57.880;12.164;2023-07-13T18:04:50;13.53;;;3.33;;
55663;SDS011;41540;57.880;12.164;2023-07-13T18:14:50;5.47;;;2.92;;
55663;SDS011;41540;57.880;12.164;2023-07-13T18:24:50;6.97;;;2.85;;
55663;SDS011;41540;57.880;12.164;2023-07-13T18:34:52;6.67;;;3.03;;
55663;SDS011;41540;57.880;12.164;2023-07-13T18:44:53;5.65;;;2.88;;
55663;SDS011;41540;57.880;12.164;2023-07-13T18:54:56;4.88;;;2.33;;
55663;SDS011;41540;57.880;12.164;2023-07-13T19:04:56;6.88;;;3.22;;
55663;SDS011;41540;57.880;12.164;2023-07-13T19:14:58;8.27;;;2.87;;
55663;SDS011;41540;57.880;12.164;2023-07-13T19:24:59;6.45;;;2.67;;
55663;SDS011;41540;57.880;12.164;2023-07-13T19:34:59;5.80;;;3.07;;
55663;SDS011;41540;57.880;12.164;2023-07-13T19:45:00;9.70;;;3.40;;
55663;SDS011;41540;57.880;12.164;2023-07-13T19:55:00;6.93;;;3.80;;
55663;SDS011;41540;57.880;12.164;2023-07-13T20:05:01;12.32;;;3.67;;
55663;SDS011;41540;57.880;12.164;2023-07-13T20:15:01;8.73;;;3.13;;
55663;SDS011;41540;57.880;12.164;2023-07-13T20:25:06;5.47;;;2.67;;
55663;SDS011;41540;57.880;12.164;2023-07-13T20:45:25;9.35;;;3.60;;
55663;SDS011;41540;57.880;12.164;2023-07-13T20:55:27;7.72;;;3.95;;
55663;SDS011;41540;57.880;12.164;2023-07-13T21:05:30;10.43;;;4.25;;
55663;SDS011;41540;57.880;12.164;2023-07-13T21:15:34;25.08;;;5.10;;
55663;SDS011;41540;57.880;12.164;2023-07-13T21:25:36;5.50;;;2.88;;
55663;SDS011;41540;57.880;12.164;2023-07-13T21:35:37;7.10;;;3.15;;
55663;SDS011;41540;57.880;12.164;2023-07-13T21:45:39;12.87;;;3.60;;
55663;SDS011;41540;57.880;12.164;2023-07-13T21:55:40;9.80;;;3.80;;
55663;SDS011;41540;57.880;12.164;2023-07-13T22:05:40;8.57;;;2.78;;
55663;SDS011;41540;57.880;12.164;2023-07-13T22:15:41;4.82;;;2.78;;
55663;SDS011;41540;57.880;12.164;2023-07-13T22:25:42;13.35;;;3.67;;
55663;SDS011;41540;57.880;12.164;2023-07-13T22:35:43;9.07;;;3.42;;
55663;SDS011;41540;57.880;12.164;2023-07-13T22:45:44;11.02;;;3.95;;
55663;SDS011;41540;57.880;12.164;2023-07-13T22:55:45;7.93;;;3.70;;
55663;SDS011;41540;57.880;12.164;2023-07-13T23:05:45;10.98;;;3.70;;
55663;SDS011;41540;57.880;12.164;2023-07-13T23:15:45;13.38;;;4.15;;
55663;SDS011;41540;57.880;12.164;2023-07-13T23:25:46;8.10;;;3.97;;
55663;SDS011;41540;57.880;12.164;2023-07-13T23:35:47;10.32;;;3.47;;
55663;SDS011;41540;57.880;12.164;2023-07-13T23:45:48;10.65;;;3.63;;
55663;SDS011;41540;57.880;12.164;2023-07-13T23:55:48;8.55;;;3.40;;
